sensor_id;sensor_type;location;lat;lon;timestamp;temperature;humidity
3418;DHT22;68007;51.312;12.372;2024-01-06T00:00:27;8.70;93.60
3418;DHT22;68007;51.312;12.372;2024-01-06T00:02:54;8.70;93.90
3418;DHT22;68007;51.312;12.372;2024-01-06T00:05:22;8.80;93.50
3418;DHT22;68007;51.312;12.372;2024-01-06T00:07:49;8.80;93.50
3418;DHT22;68007;51.312;12.372;2024-01-06T00:10:17;8.80;93.40
3418;DHT22;68007;51.312;12.372;2024-01-06T00:12:45;8.70;93.60
3418;DHT22;68007;51.312;12.372;2024-01-06T00:15:14;8.70;93.60
3418;DHT22;68007;51.312;12.372;2024-01-06T00:17:42;8.80;93.60
3418;DHT22;68007;51.312;12.372;2024-01-06T00:20:10;8.80;93.60
3418;DHT22;68007;51.312;12.372;2024-01-06T00:22:37;8.80;93.60
3418;DHT22;68007;51.312;12.372;2024-01-06T00:25:06;8.80;93.50
3418;DHT22;68007;51.312;12.372;2024-01-06T00:27:33;8.80;93.40
3418;DHT22;68007;51.312;12.372;2024-01-06T00:30:01;8.80;93.40
3418;DHT22;68007;51.312;12.372;2024-01-06T00:32:29;8.70;93.40
3418;DHT22;68007;51.312;12.372;2024-01-06T00:34:57;8.70;93.50
3418;DHT22;68007;51.312;12.372;2024-01-06T00:37:25;8.60;93.50
3418;DHT22;68007;51.312;12.372;2024-01-06T00:39:52;8.70;93.50
3418;DHT22;68007;51.312;12.372;2024-01-06T00:42:20;8.70;93.50
3418;DHT22;68007;51.312;12.372;2024-01-06T00:44:47;8.70;93.50
3418;DHT22;68007;51.312;12.372;2024-01-06T00:47:15;8.70;93.40
3418;DHT22;68007;51.312;12.372;2024-01-06T00:49:44;8.70;93.40
3418;DHT22;68007;51.312;12.372;2024-01-06T00:52:11;8.70;93.40
3418;DHT22;68007;51.312;12.372;2024-01-06T00:54:39;8.70;93.30
3418;DHT22;68007;51.312;12.372;2024-01-06T00:57:07;8.70;93.30
3418;DHT22;68007;51.312;12.372;2024-01-06T00:59:34;8.60;93.30
3418;DHT22;68007;51.312;12.372;2024-01-06T01:02:02;8.60;93.30
3418;DHT22;68007;51.312;12.372;2024-01-06T01:04:29;8.50;93.40
3418;DHT22;68007;51.312;12.372;2024-01-06T01:06:58;8.50;93.80
3418;DHT22;68007;51.312;12.372;2024-01-06T01:09:25;8.40;93.80
3418;DHT22;68007;51.312;12.372;2024-01-06T01:11:53;8.40;93.60
3418;DHT22;68007;51.312;12.372;2024-01-06T01:14:20;8.40;93.70
3418;DHT22;68007;51.312;12.372;2024-01-06T01:16:48;8.40;93.70
3418;DHT22;68007;51.312;12.372;2024-01-06T01:19:16;8.40;93.60
3418;DHT22;68007;51.312;12.372;2024-01-06T01:21:43;8.40;93.60
3418;DHT22;68007;51.312;12.372;2024-01-06T01:24:12;8.40;93.50
3418;DHT22;68007;51.312;12.372;2024-01-06T01:26:40;8.40;93.50
3418;DHT22;68007;51.312;12.372;2024-01-06T01:29:07;8.40;93.50
3418;DHT22;68007;51.312;12.372;2024-01-06T01:31:35;8.30;93.50
3418;DHT22;68007;51.312;12.372;2024-01-06T01:34:02;8.30;93.60
3418;DHT22;68007;51.312;12.372;2024-01-06T01:36:30;8.20;93.60
3418;DHT22;68007;51.312;12.372;2024-01-06T01:38:57;8.20;93.70
3418;DHT22;68007;51.312;12.372;2024-01-06T01:41:26;8.20;93.70
3418;DHT22;68007;51.312;12.372;2024-01-06T01:43:54;8.20;93.70
3418;DHT22;68007;51.312;12.372;2024-01-06T01:46:25;8.20;93.70
3418;DHT22;68007;51.312;12.372;2024-01-06T01:48:53;8.20;93.60
3418;DHT22;68007;51.312;12.372;2024-01-06T01:51:21;8.30;93.60
3418;DHT22;68007;51.312;12.372;2024-01-06T01:53:49;8.30;93.50
3418;DHT22;68007;51.312;12.372;2024-01-06T01:56:17;8.30;93.50
3418;DHT22;68007;51.312;12.372;2024-01-06T01:58:46;8.30;93.50
3418;DHT22;68007;51.312;12.372;2024-01-06T02:01:15;8.30;93.50
3418;DHT22;68007;51.312;12.372;2024-01-06T02:03:43;8.30;93.40
3418;DHT22;68007;51.312;12.372;2024-01-06T02:06:10;8.30;93.50
3418;DHT22;68007;51.312;12.372;2024-01-06T02:08:38;8.30;93.70
3418;DHT22;68007;51.312;12.372;2024-01-06T02:11:06;8.30;93.40
3418;DHT22;68007;51.312;12.372;2024-01-06T02:13:34;8.30;93.40
3418;DHT22;68007;51.312;12.372;2024-01-06T02:16:05;8.30;93.40
3418;DHT22;68007;51.312;12.372;2024-01-06T02:18:33;8.30;93.40
3418;DHT22;68007;51.312;12.372;2024-01-06T02:21:02;8.30;93.40
3418;DHT22;68007;51.312;12.372;2024-01-06T02:23:31;8.30;93.30
3418;DHT22;68007;51.312;12.372;2024-01-06T02:25:58;8.30;93.30
3418;DHT22;68007;51.312;12.372;2024-01-06T02:28:26;8.30;93.30
3418;DHT22;68007;51.312;12.372;2024-01-06T02:30:53;8.30;93.40
3418;DHT22;68007;51.312;12.372;2024-01-06T02:33:21;8.20;93.40
3418;DHT22;68007;51.312;12.372;2024-01-06T02:35:50;8.20;93.40
3418;DHT22;68007;51.312;12.372;2024-01-06T02:38:18;8.10;93.50
3418;DHT22;68007;51.312;12.372;2024-01-06T02:40:46;8.10;93.50
3418;DHT22;68007;51.312;12.372;2024-01-06T02:43:14;8.00;93.60
3418;DHT22;68007;51.312;12.372;2024-01-06T02:45:41;8.00;93.60
3418;DHT22;68007;51.312;12.372;2024-01-06T02:48:09;8.00;93.70
3418;DHT22;68007;51.312;12.372;2024-01-06T02:50:36;7.90;93.70
3418;DHT22;68007;51.312;12.372;2024-01-06T02:53:04;7.90;93.70
3418;DHT22;68007;51.312;12.372;2024-01-06T02:55:31;7.80;93.70
3418;DHT22;68007;51.312;12.372;2024-01-06T02:58:00;7.90;93.70
3418;DHT22;68007;51.312;12.372;2024-01-06T03:00:27;7.80;93.80
3418;DHT22;68007;51.312;12.372;2024-01-06T03:02:55;7.80;93.80
3418;DHT22;68007;51.312;12.372;2024-01-06T03:05:22;7.80;93.80
3418;DHT22;68007;51.312;12.372;2024-01-06T03:07:50;7.80;94.10
3418;DHT22;68007;51.312;12.372;2024-01-06T03:10:17;7.80;93.80
3418;DHT22;68007;51.312;12.372;2024-01-06T03:12:45;7.80;93.80
3418;DHT22;68007;51.312;12.372;2024-01-06T03:15:14;7.80;93.80
3418;DHT22;68007;51.312;12.372;2024-01-06T03:17:41;7.80;93.80
3418;DHT22;68007;51.312;12.372;2024-01-06T03:20:09;7.70;93.80
3418;DHT22;68007;51.312;12.372;2024-01-06T03:22:37;7.70;93.90
3418;DHT22;68007;51.312;12.372;2024-01-06T03:25:05;7.60;93.90
3418;DHT22;68007;51.312;12.372;2024-01-06T03:27:33;7.60;93.90
3418;DHT22;68007;51.312;12.372;2024-01-06T03:30:01;7.70;93.90
3418;DHT22;68007;51.312;12.372;2024-01-06T03:32:30;7.70;93.90
3418;DHT22;68007;51.312;12.372;2024-01-06T03:34:57;7.70;93.80
3418;DHT22;68007;51.312;12.372;2024-01-06T03:37:25;7.70;93.80
3418;DHT22;68007;51.312;12.372;2024-01-06T03:39:52;7.70;93.80
3418;DHT22;68007;51.312;12.372;2024-01-06T03:42:20;7.70;93.80
3418;DHT22;68007;51.312;12.372;2024-01-06T03:44:47;7.70;93.80
3418;DHT22;68007;51.312;12.372;2024-01-06T03:47:15;7.60;94.10
3418;DHT22;68007;51.312;12.372;2024-01-06T03:49:43;7.60;93.80
3418;DHT22;68007;51.312;12.372;2024-01-06T03:52:11;7.70;93.80
3418;DHT22;68007;51.312;12.372;2024-01-06T03:54:40;7.70;93.70
3418;DHT22;68007;51.312;12.372;2024-01-06T03:57:07;7.70;93.70
3418;DHT22;68007;51.312;12.372;2024-01-06T03:59:35;7.60;93.70
3418;DHT22;68007;51.312;12.372;2024-01-06T04:02:02;7.60;93.70
3418;DHT22;68007;51.312;12.372;2024-01-06T04:04:30;7.60;93.70
3418;DHT22;68007;51.312;12.372;2024-01-06T04:06:58;7.50;93.70
3418;DHT22;68007;51.312;12.372;2024-01-06T04:09:27;7.50;93.80
3418;DHT22;68007;51.312;12.372;2024-01-06T04:11:55;7.50;93.90
3418;DHT22;68007;51.312;12.372;2024-01-06T04:14:22;7.40;93.90
3418;DHT22;68007;51.312;12.372;2024-01-06T04:16:50;7.40;93.90
3418;DHT22;68007;51.312;12.372;2024-01-06T04:19:19;7.40;93.90
3418;DHT22;68007;51.312;12.372;2024-01-06T04:21:46;7.40;93.90
3418;DHT22;68007;51.312;12.372;2024-01-06T04:24:16;7.40;93.90
3418;DHT22;68007;51.312;12.372;2024-01-06T04:26:43;7.40;93.80
3418;DHT22;68007;51.312;12.372;2024-01-06T04:29:12;7.50;94.10
3418;DHT22;68007;51.312;12.372;2024-01-06T04:31:40;7.50;93.80
3418;DHT22;68007;51.312;12.372;2024-01-06T04:34:08;7.50;93.70
3418;DHT22;68007;51.312;12.372;2024-01-06T04:36:35;7.50;93.70
3418;DHT22;68007;51.312;12.372;2024-01-06T04:39:03;7.50;93.70
3418;DHT22;68007;51.312;12.372;2024-01-06T04:41:32;7.50;93.60
3418;DHT22;68007;51.312;12.372;2024-01-06T04:43:59;7.60;93.60
3418;DHT22;68007;51.312;12.372;2024-01-06T04:46:27;7.50;93.60
3418;DHT22;68007;51.312;12.372;2024-01-06T04:48:56;7.40;93.60
3418;DHT22;68007;51.312;12.372;2024-01-06T04:51:24;7.40;93.70
3418;DHT22;68007;51.312;12.372;2024-01-06T04:53:52;7.40;93.70
3418;DHT22;68007;51.312;12.372;2024-01-06T04:56:19;7.30;93.80
3418;DHT22;68007;51.312;12.372;2024-01-06T04:58:48;7.30;93.80
3418;DHT22;68007;51.312;12.372;2024-01-06T05:01:16;7.20;93.90
3418;DHT22;68007;51.312;12.372;2024-01-06T05:03:43;7.20;93.90
3418;DHT22;68007;51.312;12.372;2024-01-06T05:06:11;7.20;93.80
3418;DHT22;68007;51.312;12.372;2024-01-06T05:08:39;7.20;93.80
3418;DHT22;68007;51.312;12.372;2024-01-06T05:11:11;7.20;93.90
3418;DHT22;68007;51.312;12.372;2024-01-06T05:13:38;7.10;93.90
3418;DHT22;68007;51.312;12.372;2024-01-06T05:16:08;7.00;94.00
3418;DHT22;68007;51.312;12.372;2024-01-06T05:18:36;7.00;94.20
3418;DHT22;68007;51.312;12.372;2024-01-06T05:21:04;7.00;94.00
3418;DHT22;68007;51.312;12.372;2024-01-06T05:23:31;7.10;94.00
3418;DHT22;68007;51.312;12.372;2024-01-06T05:25:59;7.00;93.90
3418;DHT22;68007;51.312;12.372;2024-01-06T05:28:26;7.10;93.90
3418;DHT22;68007;51.312;12.372;2024-01-06T05:30:53;7.10;93.90
3418;DHT22;68007;51.312;12.372;2024-01-06T05:33:22;7.10;93.90
3418;DHT22;68007;51.312;12.372;2024-01-06T05:35:50;7.10;93.90
3418;DHT22;68007;51.312;12.372;2024-01-06T05:38:17;7.10;94.10
3418;DHT22;68007;51.312;12.372;2024-01-06T05:40:45;7.00;93.90
3418;DHT22;68007;51.312;12.372;2024-01-06T05:43:12;7.00;93.90
3418;DHT22;68007;51.312;12.372;2024-01-06T05:45:40;7.00;93.90
3418;DHT22;68007;51.312;12.372;2024-01-06T05:48:08;7.00;93.90
3418;DHT22;68007;51.312;12.372;2024-01-06T05:50:37;7.10;93.90
3418;DHT22;68007;51.312;12.372;2024-01-06T05:53:06;7.10;93.90
3418;DHT22;68007;51.312;12.372;2024-01-06T05:55:34;7.10;93.80
3418;DHT22;68007;51.312;12.372;2024-01-06T05:58:01;7.10;93.80
3418;DHT22;68007;51.312;12.372;2024-01-06T06:00:29;7.10;93.80
3418;DHT22;68007;51.312;12.372;2024-01-06T06:02:57;7.10;93.90
3418;DHT22;68007;51.312;12.372;2024-01-06T06:05:25;7.10;93.90
3418;DHT22;68007;51.312;12.372;2024-01-06T06:07:54;7.10;93.80
3418;DHT22;68007;51.312;12.372;2024-01-06T06:10:21;7.10;93.80
3418;DHT22;68007;51.312;12.372;2024-01-06T06:12:49;7.10;93.80
3418;DHT22;68007;51.312;12.372;2024-01-06T06:15:16;7.10;93.80
3418;DHT22;68007;51.312;12.372;2024-01-06T06:17:44;7.10;93.80
3418;DHT22;68007;51.312;12.372;2024-01-06T06:20:11;7.00;93.90
3418;DHT22;68007;51.312;12.372;2024-01-06T06:22:40;7.10;93.80
3418;DHT22;68007;51.312;12.372;2024-01-06T06:25:09;7.10;93.80
3418;DHT22;68007;51.312;12.372;2024-01-06T06:27:37;7.10;93.70
3418;DHT22;68007;51.312;12.372;2024-01-06T06:30:06;7.10;93.70
3418;DHT22;68007;51.312;12.372;2024-01-06T06:32:35;7.10;93.70
3418;DHT22;68007;51.312;12.372;2024-01-06T06:35:03;7.00;93.70
3418;DHT22;68007;51.312;12.372;2024-01-06T06:37:30;7.00;93.70
3418;DHT22;68007;51.312;12.372;2024-01-06T06:39:58;7.00;93.70
3418;DHT22;68007;51.312;12.372;2024-01-06T06:42:27;7.00;93.70
3418;DHT22;68007;51.312;12.372;2024-01-06T06:44:54;7.10;93.70
3418;DHT22;68007;51.312;12.372;2024-01-06T06:47:22;7.10;93.70
3418;DHT22;68007;51.312;12.372;2024-01-06T06:49:49;7.10;93.70
3418;DHT22;68007;51.312;12.372;2024-01-06T06:52:17;7.00;93.60
3418;DHT22;68007;51.312;12.372;2024-01-06T06:54:44;7.00;93.70
3418;DHT22;68007;51.312;12.372;2024-01-06T06:57:12;7.00;93.70
3418;DHT22;68007;51.312;12.372;2024-01-06T06:59:41;7.00;93.70
3418;DHT22;68007;51.312;12.372;2024-01-06T07:02:08;7.00;93.70
3418;DHT22;68007;51.312;12.372;2024-01-06T07:04:36;7.00;93.70
3418;DHT22;68007;51.312;12.372;2024-01-06T07:07:03;7.00;93.70
3418;DHT22;68007;51.312;12.372;2024-01-06T07:09:31;7.00;93.70
3418;DHT22;68007;51.312;12.372;2024-01-06T07:12:00;7.00;93.70
3418;DHT22;68007;51.312;12.372;2024-01-06T07:14:27;6.90;93.70
3418;DHT22;68007;51.312;12.372;2024-01-06T07:16:56;6.90;93.70
3418;DHT22;68007;51.312;12.372;2024-01-06T07:19:24;6.90;93.80
3418;DHT22;68007;51.312;12.372;2024-01-06T07:21:51;6.80;93.80
3418;DHT22;68007;51.312;12.372;2024-01-06T07:24:19;6.80;93.80
3418;DHT22;68007;51.312;12.372;2024-01-06T07:26:46;6.80;93.80
3418;DHT22;68007;51.312;12.372;2024-01-06T07:29:14;6.80;93.80
3418;DHT22;68007;51.312;12.372;2024-01-06T07:31:41;6.80;93.80
3418;DHT22;68007;51.312;12.372;2024-01-06T07:34:10;6.80;93.80
3418;DHT22;68007;51.312;12.372;2024-01-06T07:36:37;6.80;93.90
3418;DHT22;68007;51.312;12.372;2024-01-06T07:39:06;6.80;93.90
3418;DHT22;68007;51.312;12.372;2024-01-06T07:41:33;6.70;94.00
3418;DHT22;68007;51.312;12.372;2024-01-06T07:44:01;6.80;94.00
3418;DHT22;68007;51.312;12.372;2024-01-06T07:46:28;6.80;94.00
3418;DHT22;68007;51.312;12.372;2024-01-06T07:48:57;6.80;94.00
3418;DHT22;68007;51.312;12.372;2024-01-06T07:51:26;6.80;94.00
3418;DHT22;68007;51.312;12.372;2024-01-06T07:53:53;6.80;94.00
3418;DHT22;68007;51.312;12.372;2024-01-06T07:56:21;6.80;94.10
3418;DHT22;68007;51.312;12.372;2024-01-06T07:58:48;6.80;94.10
3418;DHT22;68007;51.312;12.372;2024-01-06T08:01:16;6.70;94.10
3418;DHT22;68007;51.312;12.372;2024-01-06T08:03:43;6.80;94.10
3418;DHT22;68007;51.312;12.372;2024-01-06T08:06:11;6.80;94.10
3418;DHT22;68007;51.312;12.372;2024-01-06T08:08:40;6.80;94.10
3418;DHT22;68007;51.312;12.372;2024-01-06T08:11:07;6.80;94.00
3418;DHT22;68007;51.312;12.372;2024-01-06T08:13:35;6.80;94.10
3418;DHT22;68007;51.312;12.372;2024-01-06T08:16:03;6.80;94.20
3418;DHT22;68007;51.312;12.372;2024-01-06T08:18:30;6.80;94.10
3418;DHT22;68007;51.312;12.372;2024-01-06T08:20:58;6.80;94.10
3418;DHT22;68007;51.312;12.372;2024-01-06T08:23:25;6.80;94.20
3418;DHT22;68007;51.312;12.372;2024-01-06T08:25:54;6.80;94.10
3418;DHT22;68007;51.312;12.372;2024-01-06T08:28:22;6.80;94.10
3418;DHT22;68007;51.312;12.372;2024-01-06T08:30:50;6.80;94.10
3418;DHT22;68007;51.312;12.372;2024-01-06T08:33:17;6.80;94.20
3418;DHT22;68007;51.312;12.372;2024-01-06T08:35:45;6.80;94.20
3418;DHT22;68007;51.312;12.372;2024-01-06T08:38:12;6.90;94.20
3418;DHT22;68007;51.312;12.372;2024-01-06T08:40:40;6.90;94.10
3418;DHT22;68007;51.312;12.372;2024-01-06T08:43:09;6.90;94.30
3418;DHT22;68007;51.312;12.372;2024-01-06T08:45:37;6.90;94.10
3418;DHT22;68007;51.312;12.372;2024-01-06T08:48:05;6.90;94.20
3418;DHT22;68007;51.312;12.372;2024-01-06T08:50:32;6.90;94.20
3418;DHT22;68007;51.312;12.372;2024-01-06T08:53:00;6.90;94.10
3418;DHT22;68007;51.312;12.372;2024-01-06T08:55:27;6.90;94.20
3418;DHT22;68007;51.312;12.372;2024-01-06T08:57:55;6.90;94.30
3418;DHT22;68007;51.312;12.372;2024-01-06T09:00:24;6.90;94.30
3418;DHT22;68007;51.312;12.372;2024-01-06T09:02:52;6.90;94.40
3418;DHT22;68007;51.312;12.372;2024-01-06T09:05:19;6.90;94.40
3418;DHT22;68007;51.312;12.372;2024-01-06T09:07:47;6.90;94.40
3418;DHT22;68007;51.312;12.372;2024-01-06T09:10:16;6.90;94.40
3418;DHT22;68007;51.312;12.372;2024-01-06T09:12:44;6.90;94.30
3418;DHT22;68007;51.312;12.372;2024-01-06T09:15:12;6.90;94.40
3418;DHT22;68007;51.312;12.372;2024-01-06T09:17:41;6.90;94.40
3418;DHT22;68007;51.312;12.372;2024-01-06T09:20:09;6.90;94.40
3418;DHT22;68007;51.312;12.372;2024-01-06T09:22:36;6.90;94.40
3418;DHT22;68007;51.312;12.372;2024-01-06T09:25:05;7.00;94.40
3418;DHT22;68007;51.312;12.372;2024-01-06T09:27:32;7.00;94.50
3418;DHT22;68007;51.312;12.372;2024-01-06T09:30:00;7.00;94.50
3418;DHT22;68007;51.312;12.372;2024-01-06T09:32:27;7.00;94.50
3418;DHT22;68007;51.312;12.372;2024-01-06T09:34:56;7.00;94.50
3418;DHT22;68007;51.312;12.372;2024-01-06T09:37:24;7.00;94.50
3418;DHT22;68007;51.312;12.372;2024-01-06T09:39:51;7.00;94.50
3418;DHT22;68007;51.312;12.372;2024-01-06T09:42:19;7.00;94.50
3418;DHT22;68007;51.312;12.372;2024-01-06T09:44:47;7.00;94.50
3418;DHT22;68007;51.312;12.372;2024-01-06T09:47:17;7.00;94.60
3418;DHT22;68007;51.312;12.372;2024-01-06T09:49:48;7.00;94.50
3418;DHT22;68007;51.312;12.372;2024-01-06T09:52:21;7.00;94.50
3418;DHT22;68007;51.312;12.372;2024-01-06T09:54:51;7.00;94.50
3418;DHT22;68007;51.312;12.372;2024-01-06T09:57:20;7.00;94.60
3418;DHT22;68007;51.312;12.372;2024-01-06T09:59:47;7.10;94.70
3418;DHT22;68007;51.312;12.372;2024-01-06T10:02:16;7.10;94.70
3418;DHT22;68007;51.312;12.372;2024-01-06T10:04:44;7.10;94.70
3418;DHT22;68007;51.312;12.372;2024-01-06T10:07:12;7.10;94.70
3418;DHT22;68007;51.312;12.372;2024-01-06T10:09:41;7.10;94.70
3418;DHT22;68007;51.312;12.372;2024-01-06T10:12:09;7.10;94.70
3418;DHT22;68007;51.312;12.372;2024-01-06T10:14:37;7.10;94.80
3418;DHT22;68007;51.312;12.372;2024-01-06T10:17:06;7.10;94.70
3418;DHT22;68007;51.312;12.372;2024-01-06T10:19:34;7.10;94.80
3418;DHT22;68007;51.312;12.372;2024-01-06T10:22:02;7.10;94.80
3418;DHT22;68007;51.312;12.372;2024-01-06T10:24:30;7.20;94.80
3418;DHT22;68007;51.312;12.372;2024-01-06T10:26:59;7.20;94.90
3418;DHT22;68007;51.312;12.372;2024-01-06T10:29:27;7.20;94.90
3418;DHT22;68007;51.312;12.372;2024-01-06T10:31:54;7.20;94.90
3418;DHT22;68007;51.312;12.372;2024-01-06T10:34:22;7.20;94.90
3418;DHT22;68007;51.312;12.372;2024-01-06T10:36:50;7.30;94.90
3418;DHT22;68007;51.312;12.372;2024-01-06T10:39:19;7.30;94.90
3418;DHT22;68007;51.312;12.372;2024-01-06T10:41:48;7.30;94.90
3418;DHT22;68007;51.312;12.372;2024-01-06T10:44:19;7.30;94.90
3418;DHT22;68007;51.312;12.372;2024-01-06T10:46:48;7.30;94.90
3418;DHT22;68007;51.312;12.372;2024-01-06T10:49:20;7.30;94.90
3418;DHT22;68007;51.312;12.372;2024-01-06T10:51:50;7.30;94.90
3418;DHT22;68007;51.312;12.372;2024-01-06T10:54:18;7.40;95.00
3418;DHT22;68007;51.312;12.372;2024-01-06T10:56:49;7.40;94.90
3418;DHT22;68007;51.312;12.372;2024-01-06T10:59:21;7.40;94.90
3418;DHT22;68007;51.312;12.372;2024-01-06T11:01:51;7.40;95.00
3418;DHT22;68007;51.312;12.372;2024-01-06T11:04:20;7.40;94.90
3418;DHT22;68007;51.312;12.372;2024-01-06T11:06:50;7.40;95.00
3418;DHT22;68007;51.312;12.372;2024-01-06T11:09:21;7.50;94.90
3418;DHT22;68007;51.312;12.372;2024-01-06T11:11:50;7.50;94.90
3418;DHT22;68007;51.312;12.372;2024-01-06T11:14:21;7.50;94.90
3418;DHT22;68007;51.312;12.372;2024-01-06T11:16:49;7.60;95.00
3418;DHT22;68007;51.312;12.372;2024-01-06T11:19:42;7.60;95.00
3418;DHT22;68007;51.312;12.372;2024-01-06T11:22:24;7.60;94.90
3418;DHT22;68007;51.312;12.372;2024-01-06T11:24:54;7.60;94.90
3418;DHT22;68007;51.312;12.372;2024-01-06T11:27:26;7.60;94.90
3418;DHT22;68007;51.312;12.372;2024-01-06T11:29:56;7.70;95.00
3418;DHT22;68007;51.312;12.372;2024-01-06T11:32:28;7.70;95.00
3418;DHT22;68007;51.312;12.372;2024-01-06T11:35:06;7.70;94.90
3418;DHT22;68007;51.312;12.372;2024-01-06T11:37:36;7.70;94.90
3418;DHT22;68007;51.312;12.372;2024-01-06T11:40:09;7.70;94.90
3418;DHT22;68007;51.312;12.372;2024-01-06T11:42:36;7.70;94.90
3418;DHT22;68007;51.312;12.372;2024-01-06T11:45:06;7.70;94.90
3418;DHT22;68007;51.312;12.372;2024-01-06T11:47:34;7.80;94.90
3418;DHT22;68007;51.312;12.372;2024-01-06T11:50:03;7.70;94.90
3418;DHT22;68007;51.312;12.372;2024-01-06T11:52:32;7.80;94.90
3418;DHT22;68007;51.312;12.372;2024-01-06T11:55:02;7.80;94.90
3418;DHT22;68007;51.312;12.372;2024-01-06T11:57:29;7.80;94.90
3418;DHT22;68007;51.312;12.372;2024-01-06T11:59:57;7.80;94.90
3418;DHT22;68007;51.312;12.372;2024-01-06T12:02:26;7.80;94.90
3418;DHT22;68007;51.312;12.372;2024-01-06T12:04:53;7.80;94.90
3418;DHT22;68007;51.312;12.372;2024-01-06T12:07:22;7.80;94.90
3418;DHT22;68007;51.312;12.372;2024-01-06T12:09:50;7.80;94.90
3418;DHT22;68007;51.312;12.372;2024-01-06T12:12:19;7.90;94.90
3418;DHT22;68007;51.312;12.372;2024-01-06T12:14:46;7.90;94.90
3418;DHT22;68007;51.312;12.372;2024-01-06T12:17:14;7.90;94.90
3418;DHT22;68007;51.312;12.372;2024-01-06T12:19:43;7.90;95.00
3418;DHT22;68007;51.312;12.372;2024-01-06T12:22:12;7.90;95.00
3418;DHT22;68007;51.312;12.372;2024-01-06T12:24:40;7.90;95.20
3418;DHT22;68007;51.312;12.372;2024-01-06T12:27:09;7.90;95.10
3418;DHT22;68007;51.312;12.372;2024-01-06T12:29:40;7.90;94.90
3418;DHT22;68007;51.312;12.372;2024-01-06T12:32:09;8.00;94.90
3418;DHT22;68007;51.312;12.372;2024-01-06T12:34:37;7.90;94.90
3418;DHT22;68007;51.312;12.372;2024-01-06T12:37:07;8.00;94.90
3418;DHT22;68007;51.312;12.372;2024-01-06T12:39:35;8.00;94.90
3418;DHT22;68007;51.312;12.372;2024-01-06T12:42:03;7.90;94.90
3418;DHT22;68007;51.312;12.372;2024-01-06T12:44:30;8.00;94.90
3418;DHT22;68007;51.312;12.372;2024-01-06T12:46:59;8.00;94.90
3418;DHT22;68007;51.312;12.372;2024-01-06T12:49:27;8.00;94.90
3418;DHT22;68007;51.312;12.372;2024-01-06T12:51:55;8.00;95.00
3418;DHT22;68007;51.312;12.372;2024-01-06T12:54:24;8.00;95.00
3418;DHT22;68007;51.312;12.372;2024-01-06T12:56:51;8.00;95.00
3418;DHT22;68007;51.312;12.372;2024-01-06T12:59:19;8.00;95.00
3418;DHT22;68007;51.312;12.372;2024-01-06T13:01:46;8.00;95.00
3418;DHT22;68007;51.312;12.372;2024-01-06T13:04:16;8.00;95.00
3418;DHT22;68007;51.312;12.372;2024-01-06T13:06:43;8.00;95.00
3418;DHT22;68007;51.312;12.372;2024-01-06T13:09:11;8.00;95.00
3418;DHT22;68007;51.312;12.372;2024-01-06T13:11:43;8.00;95.10
3418;DHT22;68007;51.312;12.372;2024-01-06T13:14:12;8.00;95.10
3418;DHT22;68007;51.312;12.372;2024-01-06T13:16:40;8.00;95.10
3418;DHT22;68007;51.312;12.372;2024-01-06T13:19:07;8.00;95.10
3418;DHT22;68007;51.312;12.372;2024-01-06T13:21:35;8.00;95.10
3418;DHT22;68007;51.312;12.372;2024-01-06T13:24:06;7.90;95.10
3418;DHT22;68007;51.312;12.372;2024-01-06T13:26:34;7.90;95.10
3418;DHT22;68007;51.312;12.372;2024-01-06T13:29:03;7.90;95.10
3418;DHT22;68007;51.312;12.372;2024-01-06T13:31:31;7.90;95.00
3418;DHT22;68007;51.312;12.372;2024-01-06T13:33:58;7.90;95.00
3418;DHT22;68007;51.312;12.372;2024-01-06T13:36:26;7.90;95.00
3418;DHT22;68007;51.312;12.372;2024-01-06T13:38:54;7.90;95.00
3418;DHT22;68007;51.312;12.372;2024-01-06T13:41:22;7.80;94.90
3418;DHT22;68007;51.312;12.372;2024-01-06T13:43:49;7.90;95.00
3418;DHT22;68007;51.312;12.372;2024-01-06T13:46:18;7.80;94.90
3418;DHT22;68007;51.312;12.372;2024-01-06T13:48:46;7.80;95.20
3418;DHT22;68007;51.312;12.372;2024-01-06T13:51:13;7.80;94.90
3418;DHT22;68007;51.312;12.372;2024-01-06T13:53:41;7.70;94.90
3418;DHT22;68007;51.312;12.372;2024-01-06T13:56:08;7.70;95.30
3418;DHT22;68007;51.312;12.372;2024-01-06T13:58:36;7.70;95.00
3418;DHT22;68007;51.312;12.372;2024-01-06T14:01:04;7.80;94.90
3418;DHT22;68007;51.312;12.372;2024-01-06T14:03:33;7.70;94.90
3418;DHT22;68007;51.312;12.372;2024-01-06T14:06:01;7.70;95.00
3418;DHT22;68007;51.312;12.372;2024-01-06T14:08:29;7.70;95.00
3418;DHT22;68007;51.312;12.372;2024-01-06T14:10:56;7.70;95.00
3418;DHT22;68007;51.312;12.372;2024-01-06T14:13:23;7.70;95.00
3418;DHT22;68007;51.312;12.372;2024-01-06T14:15:52;7.70;94.90
3418;DHT22;68007;51.312;12.372;2024-01-06T14:18:19;7.70;94.90
3418;DHT22;68007;51.312;12.372;2024-01-06T14:20:48;7.70;94.90
3418;DHT22;68007;51.312;12.372;2024-01-06T14:23:17;7.70;94.90
3418;DHT22;68007;51.312;12.372;2024-01-06T14:25:46;7.70;94.90
3418;DHT22;68007;51.312;12.372;2024-01-06T14:28:13;7.70;95.00
3418;DHT22;68007;51.312;12.372;2024-01-06T14:30:41;7.60;95.10
3418;DHT22;68007;51.312;12.372;2024-01-06T14:33:08;7.60;95.10
3418;DHT22;68007;51.312;12.372;2024-01-06T14:35:36;7.60;95.10
3418;DHT22;68007;51.312;12.372;2024-01-06T14:38:05;7.50;95.10
3418;DHT22;68007;51.312;12.372;2024-01-06T14:40:32;7.50;95.10
3418;DHT22;68007;51.312;12.372;2024-01-06T14:43:01;7.50;95.20
3418;DHT22;68007;51.312;12.372;2024-01-06T14:45:30;7.50;95.10
3418;DHT22;68007;51.312;12.372;2024-01-06T14:47:57;7.50;95.20
3418;DHT22;68007;51.312;12.372;2024-01-06T14:50:26;7.50;95.20
3418;DHT22;68007;51.312;12.372;2024-01-06T14:52:53;7.50;95.20
3418;DHT22;68007;51.312;12.372;2024-01-06T14:55:22;7.50;95.20
3418;DHT22;68007;51.312;12.372;2024-01-06T14:57:50;7.40;95.20
3418;DHT22;68007;51.312;12.372;2024-01-06T15:00:18;7.40;95.20
3418;DHT22;68007;51.312;12.372;2024-01-06T15:02:45;7.50;95.20
3418;DHT22;68007;51.312;12.372;2024-01-06T15:05:13;7.40;95.10
3418;DHT22;68007;51.312;12.372;2024-01-06T15:07:40;7.40;95.10
3418;DHT22;68007;51.312;12.372;2024-01-06T15:10:09;7.40;95.20
3418;DHT22;68007;51.312;12.372;2024-01-06T15:12:40;7.40;95.20
3418;DHT22;68007;51.312;12.372;2024-01-06T15:15:08;7.40;95.20
3418;DHT22;68007;51.312;12.372;2024-01-06T15:17:35;7.30;95.20
3418;DHT22;68007;51.312;12.372;2024-01-06T15:20:03;7.30;95.20
3418;DHT22;68007;51.312;12.372;2024-01-06T15:22:31;7.30;95.20
3418;DHT22;68007;51.312;12.372;2024-01-06T15:24:59;7.30;95.20
3418;DHT22;68007;51.312;12.372;2024-01-06T15:27:31;7.30;95.10
3418;DHT22;68007;51.312;12.372;2024-01-06T15:30:01;7.30;95.20
3418;DHT22;68007;51.312;12.372;2024-01-06T15:32:34;7.30;95.10
3418;DHT22;68007;51.312;12.372;2024-01-06T15:35:02;7.30;95.20
3418;DHT22;68007;51.312;12.372;2024-01-06T15:37:30;7.30;95.20
3418;DHT22;68007;51.312;12.372;2024-01-06T15:39:57;7.30;95.10
3418;DHT22;68007;51.312;12.372;2024-01-06T15:42:24;7.30;95.10
3418;DHT22;68007;51.312;12.372;2024-01-06T15:44:51;7.30;95.10
3418;DHT22;68007;51.312;12.372;2024-01-06T15:47:21;7.30;95.10
3418;DHT22;68007;51.312;12.372;2024-01-06T15:49:48;7.30;95.30